createdAt,value
2019-04-27T00:04:19.393Z,10.44
2019-04-27T00:08:38.719Z,10.30
2019-04-27T00:12:42.948Z,10.50
2019-04-27T00:17:21.140Z,10.36
2019-04-27T00:21:32.829Z,10.19
2019-04-27T00:25:40.978Z,10.28
2019-04-27T00:29:48.749Z,10.32
2019-04-27T00:33:57.355Z,10.17
2019-04-27T00:38:30.236Z,10.10
2019-04-27T00:42:38.184Z,10.11
2019-04-27T00:46:46.002Z,10.02
2019-04-27T00:50:53.814Z,9.96
2019-04-27T00:55:03.105Z,9.85
2019-04-27T00:59:29.030Z,9.69
2019-04-27T01:03:40.577Z,9.44
2019-04-27T01:07:48.934Z,9.41
2019-04-27T01:11:57.237Z,9.43
2019-04-27T01:16:05.322Z,9.10
2019-04-27T01:20:14.006Z,9.17
2019-04-27T01:24:21.877Z,9.21
2019-04-27T01:28:34.611Z,9.49
2019-04-27T01:32:42.428Z,9.67
2019-04-27T01:36:50.751Z,9.79
2019-04-27T01:41:00.603Z,9.90
2019-04-27T01:45:08.907Z,9.87
2019-04-27T01:49:19.267Z,9.75
2019-04-27T01:53:28.575Z,9.80
2019-04-27T01:57:38.636Z,9.67
2019-04-27T02:02:04.658Z,9.76
2019-04-27T02:06:12.747Z,9.69
2019-04-27T02:10:20.988Z,9.30
2019-04-27T02:14:29.030Z,9.57
2019-04-27T02:18:38.256Z,9.71
2019-04-27T02:22:48.542Z,9.75
2019-04-27T02:26:56.427Z,9.72
2019-04-27T02:31:26.587Z,9.57
2019-04-27T02:35:34.479Z,9.64
2019-04-27T02:39:43.432Z,9.53
2019-04-27T02:44:09.556Z,9.59
2019-04-27T02:48:16.660Z,9.52
2019-04-27T02:52:35.855Z,9.44
2019-04-27T02:56:43.969Z,9.46
2019-04-27T03:00:51.634Z,9.31
2019-04-27T03:05:00.793Z,9.33
2019-04-27T03:09:10.427Z,9.34
2019-04-27T03:13:30.373Z,9.27
2019-04-27T03:17:52.998Z,9.32
2019-04-27T03:22:22.157Z,9.39
2019-04-27T03:26:50.058Z,9.26
2019-04-27T03:31:02.356Z,9.38
2019-04-27T03:35:12.970Z,9.50
2019-04-27T03:39:19.916Z,9.62
2019-04-27T03:43:30.207Z,9.75
2019-04-27T03:47:40.479Z,9.80
2019-04-27T03:52:03.029Z,9.84
2019-04-27T03:56:25.781Z,9.99
2019-04-27T04:00:34.019Z,10.18
2019-04-27T04:04:41.933Z,10.41
2019-04-27T04:08:52.962Z,10.61
2019-04-27T04:13:10.508Z,10.84
2019-04-27T04:17:20.374Z,11.10
2019-04-27T04:21:29.829Z,11.49
2019-04-27T04:25:40.948Z,11.83
2019-04-27T04:29:49.280Z,12.07
2019-04-27T04:33:59.793Z,12.05
2019-04-27T04:38:10.440Z,12.35
2019-04-27T04:42:36.280Z,12.59
2019-04-27T04:46:53.204Z,13.00
2019-04-27T04:51:00.671Z,12.67
2019-04-27T04:55:10.156Z,13.06
2019-04-27T04:59:20.182Z,13.11
2019-04-27T05:03:28.669Z,13.62
2019-04-27T05:07:38.622Z,13.66
2019-04-27T05:11:46.494Z,13.76
2019-04-27T05:15:54.726Z,14.20
2019-04-27T05:20:06.137Z,14.60
2019-04-27T05:24:14.118Z,14.51
2019-04-27T05:28:21.947Z,14.30
2019-04-27T05:32:30.469Z,14.44
2019-04-27T05:36:43.551Z,14.76
2019-04-27T05:40:49.718Z,14.77
2019-04-27T05:45:34.343Z,15.04
2019-04-27T05:49:44.689Z,15.10
2019-04-27T05:53:52.924Z,14.70
2019-04-27T05:58:00.730Z,14.82
2019-04-27T06:02:09.361Z,15.64
2019-04-27T06:06:19.729Z,15.74
2019-04-27T06:10:29.692Z,15.29
2019-04-27T06:14:39.250Z,16.15
2019-04-27T06:18:47.076Z,16.21
2019-04-27T06:22:54.771Z,16.88
2019-04-27T06:27:02.967Z,16.84
2019-04-27T06:31:11.119Z,16.28
2019-04-27T06:35:19.012Z,16.07
2019-04-27T06:39:26.810Z,16.63
2019-04-27T06:43:34.739Z,17.19
2019-04-27T06:47:42.540Z,17.43
2019-04-27T06:51:50.365Z,16.96
2019-04-27T06:55:58.661Z,17.13
2019-04-27T07:00:09.077Z,16.72
2019-04-27T07:04:19.415Z,17.28
2019-04-27T07:08:28.662Z,17.22
2019-04-27T07:12:38.726Z,16.97
2019-04-27T07:16:46.842Z,17.26
2019-04-27T07:20:55.257Z,17.39
2019-04-27T07:25:03.078Z,16.78
2019-04-27T07:29:11.196Z,16.78
2019-04-27T07:33:19.248Z,16.68
2019-04-27T07:37:26.954Z,17.18
2019-04-27T07:41:34.730Z,17.19
2019-04-27T07:45:43.035Z,16.64
2019-04-27T07:49:50.843Z,17.16
2019-04-27T07:53:58.979Z,17.72
2019-04-27T07:58:08.782Z,17.38
2019-04-27T08:02:16.840Z,17.97
2019-04-27T08:06:24.745Z,17.26
2019-04-27T08:10:32.598Z,17.64
2019-04-27T08:14:40.482Z,17.64
2019-04-27T08:18:49.641Z,18.13
2019-04-27T08:22:59.842Z,18.38
2019-04-27T08:27:36.994Z,16.82
2019-04-27T08:31:49.996Z,16.82
2019-04-27T08:35:59.055Z,18.54
2019-04-27T08:40:09.316Z,17.23
2019-04-27T08:44:17.462Z,17.23
2019-04-27T08:48:34.774Z,17.12
2019-04-27T08:52:34.777Z,18.55
2019-04-27T08:56:42.707Z,17.02
2019-04-27T09:00:50.315Z,16.42
2019-04-27T09:04:59.654Z,16.05
2019-04-27T09:09:12.843Z,16.27
2019-04-27T09:13:29.949Z,15.84
2019-04-27T09:17:46.164Z,17.96
2019-04-27T09:22:15.271Z,18.75
2019-04-27T09:26:14.341Z,18.14
2019-04-27T09:30:22.244Z,18.45
2019-04-27T09:34:30.470Z,18.70
2019-04-27T09:38:38.684Z,18.41
2019-04-27T09:42:46.512Z,18.22
2019-04-27T09:46:56.049Z,19.30
2019-04-27T09:51:06.457Z,19.47
2019-04-27T09:55:14.114Z,18.15
2019-04-27T09:59:22.069Z,19.38
2019-04-27T10:03:29.853Z,18.90
2019-04-27T10:07:37.471Z,19.25
2019-04-27T10:11:45.281Z,19.85
2019-04-27T10:15:53.181Z,19.80
2019-04-27T10:20:01.007Z,19.75
2019-04-27T10:24:08.910Z,20.02
2019-04-27T10:28:16.624Z,19.63
2019-04-27T10:32:26.061Z,20.09
2019-04-27T10:36:40.328Z,20.37
2019-04-27T10:40:48.132Z,18.80
2019-04-27T10:44:56.252Z,20.29
2019-04-27T10:49:05.884Z,20.66
2019-04-27T10:53:13.727Z,21.21
2019-04-27T10:57:22.048Z,19.98
2019-04-27T11:01:30.831Z,19.73
2019-04-27T11:06:01.071Z,20.25
2019-04-27T11:10:10.478Z,19.64
2019-04-27T11:14:18.043Z,19.65
2019-04-27T11:18:25.923Z,19.97
2019-04-27T11:22:34.106Z,18.70
2019-04-27T11:26:41.880Z,19.18
2019-04-27T11:30:49.793Z,20.71
2019-04-27T11:35:16.569Z,21.24
2019-04-27T11:39:26.022Z,19.53
2019-04-27T11:43:33.925Z,18.89
2019-04-27T11:47:41.606Z,18.75
2019-04-27T11:51:49.225Z,18.50
2019-04-27T11:55:57.136Z,17.95
2019-04-27T12:00:07.894Z,17.61
2019-04-27T12:04:16.137Z,17.61
2019-04-27T12:08:26.410Z,17.69
2019-04-27T12:12:36.264Z,17.50
2019-04-27T12:16:43.973Z,18.32
2019-04-27T12:20:52.177Z,18.88
2019-04-27T12:24:59.892Z,19.46
2019-04-27T12:29:11.128Z,18.36
2019-04-27T12:33:19.707Z,18.41
2019-04-27T12:37:27.394Z,18.15
2019-04-27T12:41:37.305Z,17.99
2019-04-27T12:45:46.020Z,18.26
2019-04-27T12:49:53.851Z,18.23
2019-04-27T12:54:33.024Z,18.23
2019-04-27T12:58:48.443Z,18.65
2019-04-27T13:02:57.715Z,19.24
2019-04-27T13:07:05.992Z,17.08
2019-04-27T13:11:13.826Z,17.08
2019-04-27T13:15:21.946Z,17.36
2019-04-27T13:19:31.182Z,17.49
2019-04-27T13:23:38.998Z,17.91
2019-04-27T13:27:47.916Z,17.88
2019-04-27T13:31:57.743Z,16.85
2019-04-27T13:36:07.576Z,16.91
2019-04-27T13:40:17.197Z,17.68
2019-04-27T13:44:26.151Z,17.98
2019-04-27T13:48:52.866Z,17.98
2019-04-27T13:53:01.027Z,17.82
2019-04-27T13:57:08.929Z,17.65
2019-04-27T14:01:17.285Z,17.10
2019-04-27T14:05:24.764Z,17.39
2019-04-27T14:09:32.755Z,17.39
2019-04-27T14:13:40.888Z,17.59
2019-04-27T14:17:50.026Z,17.70
2019-04-27T14:21:59.067Z,17.20
2019-04-27T14:26:08.787Z,16.94
2019-04-27T14:30:18.492Z,17.18
2019-04-27T14:34:26.166Z,17.87
2019-04-27T14:38:34.127Z,16.73
2019-04-27T14:42:42.207Z,16.81
2019-04-27T14:46:51.197Z,16.68
2019-04-27T14:50:59.210Z,16.56
2019-04-27T14:55:08.586Z,16.37
2019-04-27T14:59:16.398Z,15.83
2019-04-27T15:03:24.230Z,15.77
2019-04-27T15:07:32.043Z,15.40
2019-04-27T15:11:40.040Z,15.38
2019-04-27T15:15:47.579Z,15.28
2019-04-27T15:20:00.900Z,15.19
2019-04-27T15:24:09.991Z,15.24
2019-04-27T15:28:22.746Z,15.26
2019-04-27T15:32:42.368Z,15.10
2019-04-27T15:37:00.100Z,15.03
2019-04-27T15:41:15.700Z,14.96
2019-04-27T15:45:24.479Z,15.21
2019-04-27T15:49:32.724Z,14.73
2019-04-27T15:53:41.811Z,14.35
2019-04-27T15:57:50.533Z,14.45
2019-04-27T16:01:58.616Z,14.30
2019-04-27T16:06:08.214Z,13.93
2019-04-27T16:10:17.708Z,13.89
2019-04-27T16:14:26.138Z,13.74
2019-04-27T16:18:34.056Z,13.64
2019-04-27T16:22:42.299Z,13.33
2019-04-27T16:26:52.300Z,13.60
2019-04-27T16:30:59.739Z,13.50
2019-04-27T16:35:13.667Z,13.41
2019-04-27T16:39:20.379Z,13.15
2019-04-27T16:43:32.524Z,13.13
2019-04-27T16:47:38.394Z,12.77
2019-04-27T16:51:46.178Z,12.79
2019-04-27T16:56:11.371Z,13.04
2019-04-27T17:00:18.505Z,12.63
2019-04-27T17:04:26.130Z,12.44
2019-04-27T17:08:34.014Z,12.59
2019-04-27T17:12:45.917Z,12.65
2019-04-27T17:17:03.653Z,12.28
2019-04-27T17:21:19.038Z,12.17
2019-04-27T17:25:23.423Z,12.30
2019-04-27T17:29:34.218Z,12.27
2019-04-27T17:33:48.719Z,12.23
2019-04-27T17:37:59.373Z,11.94
2019-04-27T17:42:08.445Z,11.97
2019-04-27T17:46:16.750Z,12.04
2019-04-27T17:50:26.106Z,11.94
2019-04-27T17:54:34.734Z,11.94
2019-04-27T17:58:42.636Z,11.79
2019-04-27T18:02:50.440Z,11.89
2019-04-27T18:07:02.085Z,11.90
2019-04-27T18:11:08.769Z,11.97
2019-04-27T18:15:16.850Z,11.92
2019-04-27T18:19:36.309Z,11.90
2019-04-27T18:23:52.276Z,11.93
2019-04-27T18:28:14.834Z,11.75
2019-04-27T18:32:23.478Z,11.68
2019-04-27T18:36:31.443Z,11.77
2019-04-27T18:40:40.096Z,11.88
2019-04-27T18:44:48.572Z,11.83
2019-04-27T18:49:15.265Z,11.73
2019-04-27T18:53:26.330Z,11.66
2019-04-27T18:57:34.632Z,11.96
2019-04-27T19:01:43.386Z,12.07
2019-04-27T19:05:51.409Z,11.86
2019-04-27T19:09:59.302Z,11.85
2019-04-27T19:14:08.309Z,11.83
2019-04-27T19:18:18.690Z,11.71
2019-04-27T19:22:27.967Z,11.64
2019-04-27T19:26:55.137Z,11.64
2019-04-27T19:31:08.274Z,11.72
2019-04-27T19:35:16.057Z,11.99
2019-04-27T19:39:24.573Z,11.97
2019-04-27T19:43:32.448Z,12.04
2019-04-27T19:47:40.135Z,12.04
2019-04-27T19:51:48.647Z,11.65
2019-04-27T19:56:02.390Z,11.56
2019-04-27T20:00:19.626Z,11.68
2019-04-27T20:04:32.255Z,11.73
2019-04-27T20:08:41.801Z,11.98
2019-04-27T20:12:50.957Z,11.73
2019-04-27T20:16:59.133Z,11.55
2019-04-27T20:21:06.729Z,11.73
2019-04-27T20:25:14.667Z,11.64
2019-04-27T20:29:22.566Z,12.00
2019-04-27T20:33:31.150Z,12.38
2019-04-27T20:37:41.444Z,12.02
2019-04-27T20:41:50.754Z,12.27
2019-04-27T20:46:00.758Z,12.48
2019-04-27T20:50:08.981Z,12.27
2019-04-27T20:54:17.195Z,12.43
2019-04-27T20:58:25.433Z,12.48
2019-04-27T21:03:07.922Z,12.40
2019-04-27T21:07:15.400Z,11.98
2019-04-27T21:11:22.978Z,12.36
2019-04-27T21:15:31.525Z,12.21
2019-04-27T21:19:41.356Z,12.02
2019-04-27T21:23:51.363Z,12.54
2019-04-27T21:27:58.726Z,12.72
2019-04-27T21:32:07.909Z,12.53
2019-04-27T21:36:17.506Z,12.35
2019-04-27T21:40:25.225Z,12.17
2019-04-27T21:44:34.143Z,12.28
2019-04-27T21:48:42.161Z,12.38
2019-04-27T21:53:00.607Z,12.40
2019-04-27T21:57:11.000Z,12.41
2019-04-27T22:01:31.806Z,12.14
2019-04-27T22:05:41.736Z,12.20
2019-04-27T22:09:51.563Z,12.52
2019-04-27T22:14:01.205Z,12.33
2019-04-27T22:18:08.982Z,11.92
2019-04-27T22:22:29.269Z,12.36
2019-04-27T22:26:37.611Z,12.46
2019-04-27T22:30:45.413Z,12.21
2019-04-27T22:34:54.044Z,11.85
2019-04-27T22:39:11.905Z,11.54
2019-04-27T22:43:38.480Z,11.89
2019-04-27T22:47:46.140Z,12.25
2019-04-27T22:51:54.072Z,11.75
2019-04-27T22:56:16.962Z,11.85
2019-04-27T23:00:56.047Z,11.65
2019-04-27T23:05:05.730Z,11.76
2019-04-27T23:09:14.342Z,11.62
2019-04-27T23:13:22.155Z,11.55
2019-04-27T23:17:58.885Z,11.10
2019-04-27T23:22:07.028Z,10.85
2019-04-27T23:26:14.921Z,11.59
2019-04-27T23:30:28.429Z,11.15
2019-04-27T23:34:36.150Z,10.71
2019-04-27T23:38:43.725Z,10.91
2019-04-27T23:42:51.712Z,11.18
2019-04-27T23:47:00.468Z,10.72
2019-04-27T23:51:20.484Z,10.70
2019-04-27T23:55:31.826Z,10.80
2019-04-27T23:59:41.649Z,11.37
